sensor_id;sensor_type;location;lat;lon;timestamp;pressure;altitude;pressure_sealevel;temperature;humidity
76762;BME280;65705;51.032;13.790;2024-02-26T00:01:41;99144.56;;;4.95;79.72
76762;BME280;65705;51.032;13.790;2024-02-26T00:04:09;99142.47;;;4.98;79.76
76762;BME280;65705;51.032;13.790;2024-02-26T00:06:35;99146.16;;;5.05;79.64
76762;BME280;65705;51.032;13.790;2024-02-26T00:09:02;99135.66;;;4.97;79.46
76762;BME280;65705;51.032;13.790;2024-02-26T00:11:31;99135.28;;;5.10;79.25
76762;BME280;65705;51.032;13.790;2024-02-26T00:13:57;99135.66;;;5.15;79.70
76762;BME280;65705;51.032;13.790;2024-02-26T00:16:23;99135.00;;;5.13;79.57
76762;BME280;65705;51.032;13.790;2024-02-26T00:18:49;99141.69;;;5.15;79.17
76762;BME280;65705;51.032;13.790;2024-02-26T00:21:15;99134.25;;;5.20;78.87
76762;BME280;65705;51.032;13.790;2024-02-26T00:23:41;99143.97;;;5.18;79.09
76762;BME280;65705;51.032;13.790;2024-02-26T00:26:07;99138.94;;;5.17;79.15
76762;BME280;65705;51.032;13.790;2024-02-26T00:28:33;99133.59;;;5.18;78.98
76762;BME280;65705;51.032;13.790;2024-02-26T00:30:59;99130.09;;;5.10;78.61
76762;BME280;65705;51.032;13.790;2024-02-26T00:33:25;99127.88;;;4.97;78.71
76762;BME280;65705;51.032;13.790;2024-02-26T00:35:50;99127.28;;;5.03;78.71
76762;BME280;65705;51.032;13.790;2024-02-26T00:38:16;99123.19;;;5.01;78.71
76762;BME280;65705;51.032;13.790;2024-02-26T00:40:42;99123.34;;;4.99;78.95
76762;BME280;65705;51.032;13.790;2024-02-26T00:43:08;99121.94;;;5.05;78.96
76762;BME280;65705;51.032;13.790;2024-02-26T00:45:33;99120.72;;;4.99;78.96
76762;BME280;65705;51.032;13.790;2024-02-26T00:47:59;99112.56;;;4.94;79.43
76762;BME280;65705;51.032;13.790;2024-02-26T00:50:31;99113.09;;;4.98;79.29
76762;BME280;65705;51.032;13.790;2024-02-26T00:52:57;99113.50;;;4.93;79.40
76762;BME280;65705;51.032;13.790;2024-02-26T00:55:26;99110.53;;;4.88;79.38
76762;BME280;65705;51.032;13.790;2024-02-26T00:57:51;99115.00;;;4.78;79.02
76762;BME280;65705;51.032;13.790;2024-02-26T01:00:18;99118.09;;;4.64;79.79
76762;BME280;65705;51.032;13.790;2024-02-26T01:02:43;99117.78;;;4.50;80.32
76762;BME280;65705;51.032;13.790;2024-02-26T01:05:15;99116.50;;;4.54;80.24
76762;BME280;65705;51.032;13.790;2024-02-26T01:07:42;99115.16;;;4.50;80.23
76762;BME280;65705;51.032;13.790;2024-02-26T01:10:08;99113.09;;;4.53;79.76
76762;BME280;65705;51.032;13.790;2024-02-26T01:12:34;99106.09;;;4.54;80.39
76762;BME280;65705;51.032;13.790;2024-02-26T01:15:03;99103.56;;;4.44;80.54
76762;BME280;65705;51.032;13.790;2024-02-26T01:17:30;99108.41;;;4.39;80.22
76762;BME280;65705;51.032;13.790;2024-02-26T01:19:56;99100.63;;;4.29;80.06
76762;BME280;65705;51.032;13.790;2024-02-26T01:22:22;99095.47;;;4.20;80.62
76762;BME280;65705;51.032;13.790;2024-02-26T01:24:47;99103.59;;;4.07;81.07
76762;BME280;65705;51.032;13.790;2024-02-26T01:27:13;99096.41;;;3.92;81.66
76762;BME280;65705;51.032;13.790;2024-02-26T01:29:41;99091.91;;;3.94;82.16
76762;BME280;65705;51.032;13.790;2024-02-26T01:32:07;99089.03;;;3.97;82.17
76762;BME280;65705;51.032;13.790;2024-02-26T01:34:33;99091.63;;;3.97;82.65
76762;BME280;65705;51.032;13.790;2024-02-26T01:36:59;99080.13;;;3.99;82.38
76762;BME280;65705;51.032;13.790;2024-02-26T01:39:25;99079.53;;;4.15;82.20
76762;BME280;65705;51.032;13.790;2024-02-26T01:41:50;99074.84;;;4.18;81.65
76762;BME280;65705;51.032;13.790;2024-02-26T01:44:16;99074.00;;;4.27;81.32
76762;BME280;65705;51.032;13.790;2024-02-26T01:46:42;99072.03;;;4.39;81.16
76762;BME280;65705;51.032;13.790;2024-02-26T01:49:11;99070.81;;;4.34;81.42
76762;BME280;65705;51.032;13.790;2024-02-26T01:51:38;99067.41;;;4.33;80.58
76762;BME280;65705;51.032;13.790;2024-02-26T01:54:05;99064.34;;;4.38;80.41
76762;BME280;65705;51.032;13.790;2024-02-26T01:56:34;99065.19;;;4.38;80.40
76762;BME280;65705;51.032;13.790;2024-02-26T01:59:01;99057.25;;;4.40;80.33
76762;BME280;65705;51.032;13.790;2024-02-26T02:01:29;99054.50;;;4.41;80.24
76762;BME280;65705;51.032;13.790;2024-02-26T02:03:59;99049.31;;;4.41;79.77
76762;BME280;65705;51.032;13.790;2024-02-26T02:06:25;99047.75;;;4.48;78.92
76762;BME280;65705;51.032;13.790;2024-02-26T02:08:52;99048.16;;;4.53;79.22
76762;BME280;65705;51.032;13.790;2024-02-26T02:11:19;99050.06;;;4.51;79.92
76762;BME280;65705;51.032;13.790;2024-02-26T02:13:45;99046.22;;;4.55;79.16
76762;BME280;65705;51.032;13.790;2024-02-26T02:16:11;99046.34;;;4.54;79.27
76762;BME280;65705;51.032;13.790;2024-02-26T02:18:36;99045.97;;;4.49;79.86
76762;BME280;65705;51.032;13.790;2024-02-26T02:21:02;99052.53;;;4.53;79.82
76762;BME280;65705;51.032;13.790;2024-02-26T02:23:28;99047.97;;;4.37;79.89
76762;BME280;65705;51.032;13.790;2024-02-26T02:25:56;99050.56;;;4.37;79.77
76762;BME280;65705;51.032;13.790;2024-02-26T02:28:22;99042.25;;;4.34;80.08
76762;BME280;65705;51.032;13.790;2024-02-26T02:30:49;99046.63;;;4.33;80.40
76762;BME280;65705;51.032;13.790;2024-02-26T02:33:15;99042.81;;;4.27;80.52
76762;BME280;65705;51.032;13.790;2024-02-26T02:35:41;99045.72;;;4.24;80.86
76762;BME280;65705;51.032;13.790;2024-02-26T02:38:10;99049.13;;;4.25;81.30
76762;BME280;65705;51.032;13.790;2024-02-26T02:40:36;99043.41;;;4.21;81.64
76762;BME280;65705;51.032;13.790;2024-02-26T02:43:02;99041.72;;;4.30;80.97
76762;BME280;65705;51.032;13.790;2024-02-26T02:45:28;99037.13;;;4.24;81.17
76762;BME280;65705;51.032;13.790;2024-02-26T02:47:54;99037.94;;;4.24;81.11
76762;BME280;65705;51.032;13.790;2024-02-26T02:50:20;99035.19;;;4.26;80.72
76762;BME280;65705;51.032;13.790;2024-02-26T02:52:46;99043.13;;;4.24;80.69
76762;BME280;65705;51.032;13.790;2024-02-26T02:55:12;99034.28;;;4.17;81.30
76762;BME280;65705;51.032;13.790;2024-02-26T02:57:37;99040.69;;;4.23;80.93
76762;BME280;65705;51.032;13.790;2024-02-26T03:00:10;99042.31;;;4.24;80.85
76762;BME280;65705;51.032;13.790;2024-02-26T03:02:36;99043.13;;;4.24;80.79
76762;BME280;65705;51.032;13.790;2024-02-26T03:05:03;99042.59;;;4.21;80.73
76762;BME280;65705;51.032;13.790;2024-02-26T03:07:29;99048.19;;;4.26;80.66
76762;BME280;65705;51.032;13.790;2024-02-26T03:09:55;99052.13;;;4.30;80.45
76762;BME280;65705;51.032;13.790;2024-02-26T03:12:21;99050.78;;;4.26;80.40
76762;BME280;65705;51.032;13.790;2024-02-26T03:14:47;99046.25;;;4.28;80.78
76762;BME280;65705;51.032;13.790;2024-02-26T03:17:13;99049.00;;;4.26;80.00
76762;BME280;65705;51.032;13.790;2024-02-26T03:19:39;99056.03;;;4.34;80.07
76762;BME280;65705;51.032;13.790;2024-02-26T03:22:05;99045.88;;;4.23;80.95
76762;BME280;65705;51.032;13.790;2024-02-26T03:24:30;99037.41;;;4.21;80.89
76762;BME280;65705;51.032;13.790;2024-02-26T03:26:56;99050.97;;;4.15;81.16
76762;BME280;65705;51.032;13.790;2024-02-26T03:29:23;99056.16;;;4.15;81.92
76762;BME280;65705;51.032;13.790;2024-02-26T03:31:48;99061.03;;;4.18;81.11
76762;BME280;65705;51.032;13.790;2024-02-26T03:34:14;99059.66;;;4.23;80.00
76762;BME280;65705;51.032;13.790;2024-02-26T03:36:41;99057.44;;;4.28;79.30
76762;BME280;65705;51.032;13.790;2024-02-26T03:39:06;99064.44;;;4.28;79.47
76762;BME280;65705;51.032;13.790;2024-02-26T03:41:33;99071.84;;;4.23;79.63
76762;BME280;65705;51.032;13.790;2024-02-26T03:43:59;99075.38;;;4.22;79.71
76762;BME280;65705;51.032;13.790;2024-02-26T03:46:25;99070.19;;;4.22;79.80
76762;BME280;65705;51.032;13.790;2024-02-26T03:48:51;99073.09;;;4.19;79.09
76762;BME280;65705;51.032;13.790;2024-02-26T03:51:16;99073.88;;;4.19;79.25
76762;BME280;65705;51.032;13.790;2024-02-26T03:53:42;99078.84;;;4.13;79.66
76762;BME280;65705;51.032;13.790;2024-02-26T03:56:08;99072.97;;;4.11;80.39
76762;BME280;65705;51.032;13.790;2024-02-26T03:58:33;99078.53;;;4.16;80.14
76762;BME280;65705;51.032;13.790;2024-02-26T04:01:00;99077.91;;;4.14;80.66
76762;BME280;65705;51.032;13.790;2024-02-26T04:03:26;99083.34;;;4.11;80.51
76762;BME280;65705;51.032;13.790;2024-02-26T04:05:52;99079.81;;;4.12;80.70
76762;BME280;65705;51.032;13.790;2024-02-26T04:08:17;99079.38;;;4.16;80.01
76762;BME280;65705;51.032;13.790;2024-02-26T04:10:43;99083.50;;;4.09;79.53
76762;BME280;65705;51.032;13.790;2024-02-26T04:13:09;99086.00;;;4.01;78.80
76762;BME280;65705;51.032;13.790;2024-02-26T04:15:34;99082.81;;;4.07;78.47
76762;BME280;65705;51.032;13.790;2024-02-26T04:18:00;99085.47;;;3.98;78.74
76762;BME280;65705;51.032;13.790;2024-02-26T04:20:26;99089.31;;;3.94;78.54
76762;BME280;65705;51.032;13.790;2024-02-26T04:22:52;99084.69;;;3.88;78.25
76762;BME280;65705;51.032;13.790;2024-02-26T04:25:18;99087.13;;;3.89;78.49
76762;BME280;65705;51.032;13.790;2024-02-26T04:27:44;99084.53;;;3.89;78.37
76762;BME280;65705;51.032;13.790;2024-02-26T04:30:10;99091.09;;;3.84;77.92
76762;BME280;65705;51.032;13.790;2024-02-26T04:32:36;99083.59;;;3.81;79.02
76762;BME280;65705;51.032;13.790;2024-02-26T04:35:02;99081.03;;;3.71;79.43
76762;BME280;65705;51.032;13.790;2024-02-26T04:37:28;99086.50;;;3.68;80.81
76762;BME280;65705;51.032;13.790;2024-02-26T04:40:00;99088.19;;;3.60;81.34
76762;BME280;65705;51.032;13.790;2024-02-26T04:42:27;99093.06;;;3.63;81.21
76762;BME280;65705;51.032;13.790;2024-02-26T04:44:54;99095.97;;;3.60;81.12
76762;BME280;65705;51.032;13.790;2024-02-26T04:47:20;99095.56;;;3.55;80.97
76762;BME280;65705;51.032;13.790;2024-02-26T04:49:49;99088.72;;;3.54;80.91
76762;BME280;65705;51.032;13.790;2024-02-26T04:52:15;99095.41;;;3.56;80.79
76762;BME280;65705;51.032;13.790;2024-02-26T04:54:40;99095.13;;;3.50;80.07
76762;BME280;65705;51.032;13.790;2024-02-26T04:57:06;99094.19;;;3.60;80.25
76762;BME280;65705;51.032;13.790;2024-02-26T04:59:32;99092.78;;;3.66;79.76
76762;BME280;65705;51.032;13.790;2024-02-26T05:01:58;99086.81;;;3.65;79.08
76762;BME280;65705;51.032;13.790;2024-02-26T05:04:23;99101.84;;;3.62;79.13
76762;BME280;65705;51.032;13.790;2024-02-26T05:06:49;99103.59;;;3.52;79.84
76762;BME280;65705;51.032;13.790;2024-02-26T05:09:15;99104.03;;;3.57;80.31
76762;BME280;65705;51.032;13.790;2024-02-26T05:11:41;99105.50;;;3.59;79.67
76762;BME280;65705;51.032;13.790;2024-02-26T05:14:07;99103.31;;;3.64;79.45
76762;BME280;65705;51.032;13.790;2024-02-26T05:16:33;99106.47;;;3.58;78.92
76762;BME280;65705;51.032;13.790;2024-02-26T05:18:58;99114.81;;;3.62;79.28
76762;BME280;65705;51.032;13.790;2024-02-26T05:21:24;99114.22;;;3.68;78.88
76762;BME280;65705;51.032;13.790;2024-02-26T05:23:50;99118.56;;;3.77;79.16
76762;BME280;65705;51.032;13.790;2024-02-26T05:26:22;99119.78;;;3.82;78.68
76762;BME280;65705;51.032;13.790;2024-02-26T05:28:48;99114.06;;;3.79;79.22
76762;BME280;65705;51.032;13.790;2024-02-26T05:31:15;99121.03;;;3.78;79.57
76762;BME280;65705;51.032;13.790;2024-02-26T05:33:41;99117.09;;;3.74;80.16
76762;BME280;65705;51.032;13.790;2024-02-26T05:36:06;99113.69;;;3.74;79.69
76762;BME280;65705;51.032;13.790;2024-02-26T05:38:32;99119.25;;;3.69;79.68
76762;BME280;65705;51.032;13.790;2024-02-26T05:40:58;99120.25;;;3.68;79.69
76762;BME280;65705;51.032;13.790;2024-02-26T05:43:25;99112.44;;;3.68;79.71
76762;BME280;65705;51.032;13.790;2024-02-26T05:45:51;99118.47;;;3.69;79.43
76762;BME280;65705;51.032;13.790;2024-02-26T05:48:17;99117.41;;;3.62;79.57
76762;BME280;65705;51.032;13.790;2024-02-26T05:50:47;99120.38;;;3.67;79.90
76762;BME280;65705;51.032;13.790;2024-02-26T05:53:13;99129.78;;;3.68;80.79
76762;BME280;65705;51.032;13.790;2024-02-26T05:55:39;99135.69;;;3.60;80.72
76762;BME280;65705;51.032;13.790;2024-02-26T05:58:05;99136.78;;;3.48;81.30
76762;BME280;65705;51.032;13.790;2024-02-26T06:00:31;99128.16;;;3.57;81.26
76762;BME280;65705;51.032;13.790;2024-02-26T06:02:57;99129.81;;;3.58;81.52
76762;BME280;65705;51.032;13.790;2024-02-26T06:05:23;99122.59;;;3.62;81.13
76762;BME280;65705;51.032;13.790;2024-02-26T06:07:49;99130.91;;;3.65;80.60
76762;BME280;65705;51.032;13.790;2024-02-26T06:10:15;99127.72;;;3.71;80.61
76762;BME280;65705;51.032;13.790;2024-02-26T06:12:40;99128.94;;;3.77;80.66
76762;BME280;65705;51.032;13.790;2024-02-26T06:15:06;99131.16;;;3.81;80.69
76762;BME280;65705;51.032;13.790;2024-02-26T06:17:33;99136.28;;;3.91;79.89
76762;BME280;65705;51.032;13.790;2024-02-26T06:19:59;99137.78;;;3.93;79.67
76762;BME280;65705;51.032;13.790;2024-02-26T06:22:25;99134.22;;;3.94;79.65
76762;BME280;65705;51.032;13.790;2024-02-26T06:24:51;99142.44;;;3.90;80.63
76762;BME280;65705;51.032;13.790;2024-02-26T06:27:17;99139.00;;;3.99;81.18
76762;BME280;65705;51.032;13.790;2024-02-26T06:29:43;99132.44;;;4.04;80.96
76762;BME280;65705;51.032;13.790;2024-02-26T06:32:08;99143.19;;;4.19;80.67
76762;BME280;65705;51.032;13.790;2024-02-26T06:34:34;99143.19;;;4.19;80.34
76762;BME280;65705;51.032;13.790;2024-02-26T06:37:01;99145.72;;;4.28;79.94
76762;BME280;65705;51.032;13.790;2024-02-26T06:39:26;99148.44;;;4.37;79.34
76762;BME280;65705;51.032;13.790;2024-02-26T06:41:52;99134.91;;;4.43;79.71
76762;BME280;65705;51.032;13.790;2024-02-26T06:44:25;99144.31;;;4.44;79.47
76762;BME280;65705;51.032;13.790;2024-02-26T06:46:51;99139.78;;;4.46;79.61
76762;BME280;65705;51.032;13.790;2024-02-26T06:49:17;99137.50;;;4.43;80.06
76762;BME280;65705;51.032;13.790;2024-02-26T06:51:43;99131.69;;;4.49;80.15
76762;BME280;65705;51.032;13.790;2024-02-26T06:54:11;99132.38;;;4.51;79.94
76762;BME280;65705;51.032;13.790;2024-02-26T06:56:37;99131.66;;;4.58;79.85
76762;BME280;65705;51.032;13.790;2024-02-26T06:59:03;99142.00;;;4.68;79.53
76762;BME280;65705;51.032;13.790;2024-02-26T07:01:28;99135.00;;;4.68;79.22
76762;BME280;65705;51.032;13.790;2024-02-26T07:03:56;99140.16;;;4.78;79.12
76762;BME280;65705;51.032;13.790;2024-02-26T07:06:21;99141.03;;;4.69;79.66
76762;BME280;65705;51.032;13.790;2024-02-26T07:08:47;99150.56;;;4.78;79.61
76762;BME280;65705;51.032;13.790;2024-02-26T07:11:13;99143.34;;;4.72;80.24
76762;BME280;65705;51.032;13.790;2024-02-26T07:13:38;99148.25;;;4.75;80.81
76762;BME280;65705;51.032;13.790;2024-02-26T07:16:04;99143.50;;;4.88;80.18
76762;BME280;65705;51.032;13.790;2024-02-26T07:18:30;99137.59;;;4.95;79.73
76762;BME280;65705;51.032;13.790;2024-02-26T07:20:56;99143.09;;;5.10;79.32
76762;BME280;65705;51.032;13.790;2024-02-26T07:23:22;99139.16;;;5.23;78.65
76762;BME280;65705;51.032;13.790;2024-02-26T07:25:47;99146.72;;;5.34;78.18
76762;BME280;65705;51.032;13.790;2024-02-26T07:28:15;99140.13;;;5.40;78.79
76762;BME280;65705;51.032;13.790;2024-02-26T07:30:40;99140.94;;;5.41;78.96
76762;BME280;65705;51.032;13.790;2024-02-26T07:33:06;99148.91;;;5.39;79.12
76762;BME280;65705;51.032;13.790;2024-02-26T07:35:33;99149.84;;;5.38;79.93
76762;BME280;65705;51.032;13.790;2024-02-26T07:37:59;99145.41;;;5.30;80.13
76762;BME280;65705;51.032;13.790;2024-02-26T07:40:25;99144.75;;;5.28;79.82
76762;BME280;65705;51.032;13.790;2024-02-26T07:42:51;99147.78;;;5.42;79.74
76762;BME280;65705;51.032;13.790;2024-02-26T07:45:16;99140.34;;;5.47;78.90
76762;BME280;65705;51.032;13.790;2024-02-26T07:47:46;99139.56;;;5.54;79.14
76762;BME280;65705;51.032;13.790;2024-02-26T07:50:12;99151.84;;;5.62;78.79
76762;BME280;65705;51.032;13.790;2024-02-26T07:52:38;99146.03;;;5.68;79.27
76762;BME280;65705;51.032;13.790;2024-02-26T07:55:04;99153.91;;;5.76;79.37
76762;BME280;65705;51.032;13.790;2024-02-26T07:57:32;99146.19;;;5.84;78.97
76762;BME280;65705;51.032;13.790;2024-02-26T07:59:59;99147.38;;;5.89;78.58
76762;BME280;65705;51.032;13.790;2024-02-26T08:02:25;99151.50;;;6.00;78.95
76762;BME280;65705;51.032;13.790;2024-02-26T08:04:51;99144.72;;;6.07;79.14
76762;BME280;65705;51.032;13.790;2024-02-26T08:07:16;99143.44;;;6.11;79.39
76762;BME280;65705;51.032;13.790;2024-02-26T08:09:42;99154.25;;;6.24;79.37
76762;BME280;65705;51.032;13.790;2024-02-26T08:12:08;99145.38;;;6.34;79.33
76762;BME280;65705;51.032;13.790;2024-02-26T08:14:34;99134.78;;;6.44;79.32
76762;BME280;65705;51.032;13.790;2024-02-26T08:16:59;99141.19;;;6.50;79.28
76762;BME280;65705;51.032;13.790;2024-02-26T08:19:26;99148.09;;;6.67;79.38
76762;BME280;65705;51.032;13.790;2024-02-26T08:21:52;99148.94;;;6.83;79.18
76762;BME280;65705;51.032;13.790;2024-02-26T08:24:18;99148.31;;;6.89;78.98
76762;BME280;65705;51.032;13.790;2024-02-26T08:26:44;99152.44;;;7.00;78.88
76762;BME280;65705;51.032;13.790;2024-02-26T08:29:09;99148.69;;;7.10;78.88
76762;BME280;65705;51.032;13.790;2024-02-26T08:31:35;99153.28;;;7.16;78.78
76762;BME280;65705;51.032;13.790;2024-02-26T08:34:03;99155.59;;;7.27;78.36
76762;BME280;65705;51.032;13.790;2024-02-26T08:36:31;99156.25;;;7.37;78.39
76762;BME280;65705;51.032;13.790;2024-02-26T08:38:57;99158.88;;;7.45;78.78
76762;BME280;65705;51.032;13.790;2024-02-26T08:41:22;99158.88;;;7.62;78.21
76762;BME280;65705;51.032;13.790;2024-02-26T08:43:48;99162.78;;;7.74;77.77
76762;BME280;65705;51.032;13.790;2024-02-26T08:46:14;99165.38;;;7.82;77.36
76762;BME280;65705;51.032;13.790;2024-02-26T08:48:40;99163.91;;;7.95;77.07
76762;BME280;65705;51.032;13.790;2024-02-26T08:51:06;99158.19;;;8.00;76.90
76762;BME280;65705;51.032;13.790;2024-02-26T08:53:32;99161.44;;;8.10;76.66
76762;BME280;65705;51.032;13.790;2024-02-26T08:55:58;99161.41;;;8.18;76.28
76762;BME280;65705;51.032;13.790;2024-02-26T08:58:24;99161.91;;;8.21;76.31
76762;BME280;65705;51.032;13.790;2024-02-26T09:00:49;99163.53;;;8.30;76.29
76762;BME280;65705;51.032;13.790;2024-02-26T09:03:15;99169.91;;;8.36;75.94
76762;BME280;65705;51.032;13.790;2024-02-26T09:05:42;99163.19;;;8.41;75.85
76762;BME280;65705;51.032;13.790;2024-02-26T09:08:08;99174.59;;;8.48;74.67
76762;BME280;65705;51.032;13.790;2024-02-26T09:10:34;99165.75;;;8.58;74.63
76762;BME280;65705;51.032;13.790;2024-02-26T09:13:00;99149.84;;;8.67;74.35
76762;BME280;65705;51.032;13.790;2024-02-26T09:15:25;99151.63;;;8.75;74.04
76762;BME280;65705;51.032;13.790;2024-02-26T09:17:51;99158.13;;;8.79;73.80
76762;BME280;65705;51.032;13.790;2024-02-26T09:20:17;99155.66;;;8.85;73.57
76762;BME280;65705;51.032;13.790;2024-02-26T09:22:46;99146.78;;;8.94;73.58
76762;BME280;65705;51.032;13.790;2024-02-26T09:25:13;99150.34;;;9.01;73.33
76762;BME280;65705;51.032;13.790;2024-02-26T09:27:39;99142.72;;;9.14;73.11
76762;BME280;65705;51.032;13.790;2024-02-26T09:30:05;99151.69;;;9.20;72.68
76762;BME280;65705;51.032;13.790;2024-02-26T09:32:31;99156.53;;;9.31;72.32
76762;BME280;65705;51.032;13.790;2024-02-26T09:34:57;99155.38;;;9.33;72.03
76762;BME280;65705;51.032;13.790;2024-02-26T09:37:22;99162.19;;;9.42;71.25
76762;BME280;65705;51.032;13.790;2024-02-26T09:39:48;99169.47;;;9.55;70.74
76762;BME280;65705;51.032;13.790;2024-02-26T09:42:14;99166.75;;;9.63;70.33
76762;BME280;65705;51.032;13.790;2024-02-26T09:44:43;99164.59;;;9.67;70.02
76762;BME280;65705;51.032;13.790;2024-02-26T09:47:11;99166.00;;;9.77;69.59
76762;BME280;65705;51.032;13.790;2024-02-26T09:49:38;99167.09;;;9.83;69.22
76762;BME280;65705;51.032;13.790;2024-02-26T09:52:05;99175.41;;;9.86;68.78
76762;BME280;65705;51.032;13.790;2024-02-26T09:54:32;99168.94;;;9.97;68.66
76762;BME280;65705;51.032;13.790;2024-02-26T09:57:00;99162.81;;;10.04;68.32
76762;BME280;65705;51.032;13.790;2024-02-26T09:59:39;99162.78;;;10.12;68.13
76762;BME280;65705;51.032;13.790;2024-02-26T10:02:09;99170.72;;;10.19;67.66
76762;BME280;65705;51.032;13.790;2024-02-26T10:04:36;99183.41;;;10.30;67.18
76762;BME280;65705;51.032;13.790;2024-02-26T10:07:04;99181.31;;;10.40;66.88
76762;BME280;65705;51.032;13.790;2024-02-26T10:09:30;99177.78;;;10.47;66.59
76762;BME280;65705;51.032;13.790;2024-02-26T10:11:57;99192.00;;;10.53;65.87
76762;BME280;65705;51.032;13.790;2024-02-26T10:14:23;99195.34;;;10.61;65.79
76762;BME280;65705;51.032;13.790;2024-02-26T10:16:50;99199.88;;;10.68;65.63
76762;BME280;65705;51.032;13.790;2024-02-26T10:19:28;99201.94;;;10.72;65.04
76762;BME280;65705;51.032;13.790;2024-02-26T10:21:58;99202.94;;;10.71;65.35
76762;BME280;65705;51.032;13.790;2024-02-26T10:24:25;99201.16;;;10.72;64.75
76762;BME280;65705;51.032;13.790;2024-02-26T10:26:52;99202.56;;;10.74;64.38
76762;BME280;65705;51.032;13.790;2024-02-26T10:29:20;99200.69;;;10.83;63.73
76762;BME280;65705;51.032;13.790;2024-02-26T10:31:45;99201.13;;;10.86;64.03
76762;BME280;65705;51.032;13.790;2024-02-26T10:34:12;99190.97;;;10.83;63.91
76762;BME280;65705;51.032;13.790;2024-02-26T10:36:38;99188.00;;;10.86;63.78
76762;BME280;65705;51.032;13.790;2024-02-26T10:39:06;99200.31;;;10.86;63.59
76762;BME280;65705;51.032;13.790;2024-02-26T10:41:35;99192.81;;;10.83;64.01
76762;BME280;65705;51.032;13.790;2024-02-26T10:44:01;99199.69;;;10.84;63.92
76762;BME280;65705;51.032;13.790;2024-02-26T10:46:27;99201.41;;;10.91;63.66
76762;BME280;65705;51.032;13.790;2024-02-26T10:48:53;99199.47;;;11.00;63.48
76762;BME280;65705;51.032;13.790;2024-02-26T10:51:27;99194.78;;;10.95;63.68
76762;BME280;65705;51.032;13.790;2024-02-26T10:53:58;99202.28;;;10.98;63.24
76762;BME280;65705;51.032;13.790;2024-02-26T10:56:28;99197.28;;;11.03;62.85
76762;BME280;65705;51.032;13.790;2024-02-26T10:58:58;99186.59;;;11.05;63.06
76762;BME280;65705;51.032;13.790;2024-02-26T11:01:25;99194.69;;;11.03;62.68
76762;BME280;65705;51.032;13.790;2024-02-26T11:03:52;99187.25;;;11.07;62.65
76762;BME280;65705;51.032;13.790;2024-02-26T11:06:19;99191.97;;;11.11;62.27
76762;BME280;65705;51.032;13.790;2024-02-26T11:08:50;99194.47;;;11.19;62.33
76762;BME280;65705;51.032;13.790;2024-02-26T11:11:27;99195.09;;;11.21;62.41
76762;BME280;65705;51.032;13.790;2024-02-26T11:13:55;99193.78;;;11.32;62.34
76762;BME280;65705;51.032;13.790;2024-02-26T11:16:21;99181.97;;;11.42;61.79
76762;BME280;65705;51.032;13.790;2024-02-26T11:18:48;99188.06;;;11.43;61.30
76762;BME280;65705;51.032;13.790;2024-02-26T11:21:15;99178.22;;;11.51;61.06
76762;BME280;65705;51.032;13.790;2024-02-26T11:23:42;99184.47;;;11.65;60.62
76762;BME280;65705;51.032;13.790;2024-02-26T11:26:09;99187.09;;;11.65;60.45
76762;BME280;65705;51.032;13.790;2024-02-26T11:28:36;99181.38;;;11.61;60.56
76762;BME280;65705;51.032;13.790;2024-02-26T11:31:04;99181.53;;;11.60;60.33
76762;BME280;65705;51.032;13.790;2024-02-26T11:33:30;99174.56;;;11.67;60.11
76762;BME280;65705;51.032;13.790;2024-02-26T11:35:57;99182.13;;;11.77;60.56
76762;BME280;65705;51.032;13.790;2024-02-26T11:38:26;99178.59;;;11.91;60.09
76762;BME280;65705;51.032;13.790;2024-02-26T11:40:53;99175.22;;;11.97;59.23
76762;BME280;65705;51.032;13.790;2024-02-26T11:43:23;99181.13;;;11.99;58.97
76762;BME280;65705;51.032;13.790;2024-02-26T11:45:49;99184.03;;;12.10;58.69
76762;BME280;65705;51.032;13.790;2024-02-26T11:48:21;99170.13;;;12.16;58.60
76762;BME280;65705;51.032;13.790;2024-02-26T11:50:50;99183.47;;;12.15;57.96
76762;BME280;65705;51.032;13.790;2024-02-26T11:53:20;99182.44;;;12.16;57.44
76762;BME280;65705;51.032;13.790;2024-02-26T11:55:46;99174.03;;;12.27;57.73
76762;BME280;65705;51.032;13.790;2024-02-26T11:58:12;99177.72;;;12.32;57.46
76762;BME280;65705;51.032;13.790;2024-02-26T12:00:40;99181.44;;;12.44;57.30
76762;BME280;65705;51.032;13.790;2024-02-26T12:03:06;99191.63;;;12.54;57.58
76762;BME280;65705;51.032;13.790;2024-02-26T12:05:34;99187.00;;;12.62;57.58
76762;BME280;65705;51.032;13.790;2024-02-26T12:08:04;99188.44;;;12.65;56.62
76762;BME280;65705;51.032;13.790;2024-02-26T12:10:39;99175.09;;;12.66;55.79
76762;BME280;65705;51.032;13.790;2024-02-26T12:13:11;99181.91;;;12.54;55.78
76762;BME280;65705;51.032;13.790;2024-02-26T12:15:44;99189.75;;;12.48;56.10
76762;BME280;65705;51.032;13.790;2024-02-26T12:18:16;99193.59;;;12.45;55.92
76762;BME280;65705;51.032;13.790;2024-02-26T12:20:42;99192.78;;;12.45;56.13
76762;BME280;65705;51.032;13.790;2024-02-26T12:23:14;99198.84;;;12.45;55.78
76762;BME280;65705;51.032;13.790;2024-02-26T12:25:40;99195.63;;;12.50;56.09
76762;BME280;65705;51.032;13.790;2024-02-26T12:28:07;99200.06;;;12.49;56.18
76762;BME280;65705;51.032;13.790;2024-02-26T12:30:33;99200.59;;;12.66;55.62
76762;BME280;65705;51.032;13.790;2024-02-26T12:33:00;99204.69;;;12.75;55.74
76762;BME280;65705;51.032;13.790;2024-02-26T12:35:27;99200.88;;;12.84;55.10
76762;BME280;65705;51.032;13.790;2024-02-26T12:37:54;99200.25;;;12.76;54.24
76762;BME280;65705;51.032;13.790;2024-02-26T12:40:20;99194.94;;;12.69;54.51
76762;BME280;65705;51.032;13.790;2024-02-26T12:42:46;99195.75;;;12.69;54.59
76762;BME280;65705;51.032;13.790;2024-02-26T12:45:13;99198.22;;;12.78;54.71
76762;BME280;65705;51.032;13.790;2024-02-26T12:47:40;99192.34;;;12.76;54.20
76762;BME280;65705;51.032;13.790;2024-02-26T12:50:08;99197.59;;;12.76;54.43
76762;BME280;65705;51.032;13.790;2024-02-26T12:52:35;99196.47;;;12.57;54.71
76762;BME280;65705;51.032;13.790;2024-02-26T12:55:02;99196.91;;;12.60;54.88